Havre, MT (59501)

3:16 PM MDT on July 23, 2016 (GMT -0600)
South Havre | | Change Station

Elev 2503 ft 48.54 °N, 109.68 °W | Updated 1 second ago

Partly Cloudy
Partly Cloudy
82.6 °F
Feels Like 81 °F
N
0.4
Wind Variable Wind from WSW
Gusts 2.5 mph

Today
High -- | Low -- °F
--% Chance of Precip.
Yesterday
High -- | Low -- °F
Precip. -- in
Pressure 29.99 in
Visibility 10.0 miles
Clouds Few 6000 ft
Heat Index 81 °F
Dew Point 51 °F
Humidity 34%
Rainfall 0.00 in
Snow Depth Not available.
5:42 AM 9:07 PM
Waning Gibbous, 82% visible
METAR KHVR 232053Z AUTO 33014G22KT 10SM FEW060 27/10 A2999 RMK AO2 PK WND 34026/2005 SLPNO T02670100 53003
Pressure 29.99 in
Visibility 10.0 miles
Clouds Few 6000 ft
Heat Index 81 °F
Dew Point 51 °F
Humidity 34%
Rainfall 0.00 in
Snow Depth Not available.
5:42 AM 9:07 PM
Waning Gibbous, 82% visible
METAR KHVR 232053Z AUTO 33014G22KT 10SM FEW060 27/10 A2999 RMK AO2 PK WND 34026/2005 SLPNO T02670100 53003

10-Day Weather Forecast

Almanac

Astronomy

Jul. 23, 2016 Rise Set
Actual Time
Civil Twilight
Nautical Twilight
Astronomical Twilight
Moon
Length of Visible Light
Length of Day
Tomorrow will be .
, % of the Moon is Illuminated

Today's Extremes

State Highs State Lows

Community

WunderPhotos

Upload Photos

1,926,927 photos uploaded!

WunderBlog® & News

Nearby

Air Quality

  Air Quality AQ Index Pollutant
Not available.

Snow Depth

Station Depth Elevation

Earthquake Activity

City Distance Mag. Time & Date
Minimum magnitude displayed is 2.5.

Coastal Water Temperatures

Place Temperature

Stations

Nearby Weather Stations

Station Location Temp. Windchill Dew Point Humidity Wind Precip. Elev Updated Type
                   

Watches & Warnings

There are currently no watches in effect.